Terminal Aerodrome Forecast
Issued by NWS

Current Version | Previous Version | Graphics & Text | Print | Product List | Glossary On
Versions: 1 2 3 4 5 6 7 8 9 10 11 12 13 14 15 16 17 18 19 20 21 22 23 24 25 26
000
FTUS41 KRNK 172335
TAFLWB
TAF
KLWB 172335Z 1800/1824 07007KT 5SM SHRA VCTS SCT007 BKN035CB
      TEMPO 1800/1804 1SM +TSRA OVC007CB
     FM180600 09006KT 5SM BR VCSH OVC007
     FM181200 11005KT 3SM -SHRA BR OVC008=

USA.gov is the U.S. government's official web portal to all federal, state and local government web resources and services.